sensor_id;sensor_type;location;lat;lon;timestamp;temperature;humidity
21216;DHT22;10765;50.954;5.322;2024-01-06T00:00:57;7.30;99.90
21216;DHT22;10765;50.954;5.322;2024-01-06T00:03:24;7.30;99.90
21216;DHT22;10765;50.954;5.322;2024-01-06T00:05:51;7.30;99.90
21216;DHT22;10765;50.954;5.322;2024-01-06T00:08:18;7.30;99.90
21216;DHT22;10765;50.954;5.322;2024-01-06T00:10:45;7.40;99.90
21216;DHT22;10765;50.954;5.322;2024-01-06T00:13:12;7.30;99.90
21216;DHT22;10765;50.954;5.322;2024-01-06T00:15:38;7.30;99.90
21216;DHT22;10765;50.954;5.322;2024-01-06T00:18:07;7.30;99.90
21216;DHT22;10765;50.954;5.322;2024-01-06T00:20:34;7.30;99.90
21216;DHT22;10765;50.954;5.322;2024-01-06T00:23:00;7.30;99.90
21216;DHT22;10765;50.954;5.322;2024-01-06T00:25:27;7.20;99.90
21216;DHT22;10765;50.954;5.322;2024-01-06T00:27:54;7.20;99.90
21216;DHT22;10765;50.954;5.322;2024-01-06T00:30:21;7.30;99.90
21216;DHT22;10765;50.954;5.322;2024-01-06T00:32:48;7.30;99.90
21216;DHT22;10765;50.954;5.322;2024-01-06T00:35:16;7.30;99.90
21216;DHT22;10765;50.954;5.322;2024-01-06T00:37:43;7.30;99.90
21216;DHT22;10765;50.954;5.322;2024-01-06T00:40:11;7.30;99.90
21216;DHT22;10765;50.954;5.322;2024-01-06T00:42:38;7.30;99.90
21216;DHT22;10765;50.954;5.322;2024-01-06T00:45:05;7.30;99.90
21216;DHT22;10765;50.954;5.322;2024-01-06T00:47:32;7.20;99.90
21216;DHT22;10765;50.954;5.322;2024-01-06T00:49:59;7.20;99.90
21216;DHT22;10765;50.954;5.322;2024-01-06T00:52:27;7.20;99.90
21216;DHT22;10765;50.954;5.322;2024-01-06T00:54:54;7.20;99.90
21216;DHT22;10765;50.954;5.322;2024-01-06T00:57:21;7.20;99.90
21216;DHT22;10765;50.954;5.322;2024-01-06T00:59:49;7.30;99.90
21216;DHT22;10765;50.954;5.322;2024-01-06T01:02:17;7.30;99.90
21216;DHT22;10765;50.954;5.322;2024-01-06T01:04:43;7.40;99.90
21216;DHT22;10765;50.954;5.322;2024-01-06T01:07:10;7.40;99.90
21216;DHT22;10765;50.954;5.322;2024-01-06T01:09:40;7.30;99.90
21216;DHT22;10765;50.954;5.322;2024-01-06T01:12:06;7.30;99.90
21216;DHT22;10765;50.954;5.322;2024-01-06T01:14:33;7.40;99.90
21216;DHT22;10765;50.954;5.322;2024-01-06T01:17:00;7.40;99.90
21216;DHT22;10765;50.954;5.322;2024-01-06T01:19:27;7.40;99.90
21216;DHT22;10765;50.954;5.322;2024-01-06T01:21:54;7.40;99.90
21216;DHT22;10765;50.954;5.322;2024-01-06T01:24:21;7.40;99.90
21216;DHT22;10765;50.954;5.322;2024-01-06T01:26:50;7.30;99.90
21216;DHT22;10765;50.954;5.322;2024-01-06T01:29:17;7.30;99.90
21216;DHT22;10765;50.954;5.322;2024-01-06T01:31:45;7.20;99.90
21216;DHT22;10765;50.954;5.322;2024-01-06T01:34:12;7.20;99.90
21216;DHT22;10765;50.954;5.322;2024-01-06T01:36:40;7.20;99.90
21216;DHT22;10765;50.954;5.322;2024-01-06T01:39:07;7.30;99.90
21216;DHT22;10765;50.954;5.322;2024-01-06T01:41:34;7.20;99.90
21216;DHT22;10765;50.954;5.322;2024-01-06T01:44:02;7.20;99.90
21216;DHT22;10765;50.954;5.322;2024-01-06T01:46:29;7.20;99.90
21216;DHT22;10765;50.954;5.322;2024-01-06T01:48:58;7.20;99.90
21216;DHT22;10765;50.954;5.322;2024-01-06T01:51:28;7.20;99.90
21216;DHT22;10765;50.954;5.322;2024-01-06T01:53:56;7.20;99.90
21216;DHT22;10765;50.954;5.322;2024-01-06T01:56:23;7.20;99.90
21216;DHT22;10765;50.954;5.322;2024-01-06T01:58:51;7.20;99.90
21216;DHT22;10765;50.954;5.322;2024-01-06T02:01:19;7.30;99.90
21216;DHT22;10765;50.954;5.322;2024-01-06T02:03:46;7.30;99.90
21216;DHT22;10765;50.954;5.322;2024-01-06T02:06:13;7.20;99.90
21216;DHT22;10765;50.954;5.322;2024-01-06T02:08:40;7.20;99.90
21216;DHT22;10765;50.954;5.322;2024-01-06T02:11:07;7.20;99.90
21216;DHT22;10765;50.954;5.322;2024-01-06T02:13:34;7.20;99.90
21216;DHT22;10765;50.954;5.322;2024-01-06T02:16:02;7.10;99.90
21216;DHT22;10765;50.954;5.322;2024-01-06T02:18:31;7.10;99.90
21216;DHT22;10765;50.954;5.322;2024-01-06T02:20:59;7.10;99.90
21216;DHT22;10765;50.954;5.322;2024-01-06T02:23:29;7.00;99.90
21216;DHT22;10765;50.954;5.322;2024-01-06T02:25:56;7.10;99.90
21216;DHT22;10765;50.954;5.322;2024-01-06T02:28:23;7.00;99.90
21216;DHT22;10765;50.954;5.322;2024-01-06T02:30:51;7.00;99.90
21216;DHT22;10765;50.954;5.322;2024-01-06T02:33:18;7.00;99.90
21216;DHT22;10765;50.954;5.322;2024-01-06T02:35:45;7.00;99.90
21216;DHT22;10765;50.954;5.322;2024-01-06T02:38:13;7.00;99.90
21216;DHT22;10765;50.954;5.322;2024-01-06T02:40:41;7.00;99.90
21216;DHT22;10765;50.954;5.322;2024-01-06T02:43:08;6.90;99.90
21216;DHT22;10765;50.954;5.322;2024-01-06T02:45:35;6.90;99.90
21216;DHT22;10765;50.954;5.322;2024-01-06T02:48:03;6.80;99.90
21216;DHT22;10765;50.954;5.322;2024-01-06T02:50:30;6.60;99.90
21216;DHT22;10765;50.954;5.322;2024-01-06T02:52:57;6.50;99.90
21216;DHT22;10765;50.954;5.322;2024-01-06T02:55:23;6.40;99.90
21216;DHT22;10765;50.954;5.322;2024-01-06T02:57:52;6.50;99.90
21216;DHT22;10765;50.954;5.322;2024-01-06T03:00:19;6.40;99.90
21216;DHT22;10765;50.954;5.322;2024-01-06T03:02:46;6.30;99.90
21216;DHT22;10765;50.954;5.322;2024-01-06T03:05:13;6.30;99.90
21216;DHT22;10765;50.954;5.322;2024-01-06T03:07:39;6.30;99.90
21216;DHT22;10765;50.954;5.322;2024-01-06T03:10:07;6.30;99.90
21216;DHT22;10765;50.954;5.322;2024-01-06T03:12:34;6.30;99.90
21216;DHT22;10765;50.954;5.322;2024-01-06T03:15:02;6.30;99.90
21216;DHT22;10765;50.954;5.322;2024-01-06T03:17:29;6.20;99.90
21216;DHT22;10765;50.954;5.322;2024-01-06T03:19:56;6.30;99.90
21216;DHT22;10765;50.954;5.322;2024-01-06T03:22:23;6.30;99.90
21216;DHT22;10765;50.954;5.322;2024-01-06T03:24:49;6.20;99.90
21216;DHT22;10765;50.954;5.322;2024-01-06T03:27:16;6.20;99.90
21216;DHT22;10765;50.954;5.322;2024-01-06T03:29:43;6.30;99.90
21216;DHT22;10765;50.954;5.322;2024-01-06T03:32:11;6.20;99.90
21216;DHT22;10765;50.954;5.322;2024-01-06T03:34:38;6.30;99.90
21216;DHT22;10765;50.954;5.322;2024-01-06T03:37:07;6.30;99.90
21216;DHT22;10765;50.954;5.322;2024-01-06T03:39:34;6.20;99.90
21216;DHT22;10765;50.954;5.322;2024-01-06T03:42:01;6.20;99.90
21216;DHT22;10765;50.954;5.322;2024-01-06T03:44:28;6.30;99.90
21216;DHT22;10765;50.954;5.322;2024-01-06T03:46:56;6.20;99.90
21216;DHT22;10765;50.954;5.322;2024-01-06T03:49:25;6.30;99.90
21216;DHT22;10765;50.954;5.322;2024-01-06T03:51:52;6.30;99.90
21216;DHT22;10765;50.954;5.322;2024-01-06T03:54:19;6.30;99.90
21216;DHT22;10765;50.954;5.322;2024-01-06T03:56:46;6.10;99.90
21216;DHT22;10765;50.954;5.322;2024-01-06T03:59:13;6.00;99.90
21216;DHT22;10765;50.954;5.322;2024-01-06T04:01:39;5.90;99.90
21216;DHT22;10765;50.954;5.322;2024-01-06T04:04:06;5.80;99.90
21216;DHT22;10765;50.954;5.322;2024-01-06T04:06:35;5.80;99.90
21216;DHT22;10765;50.954;5.322;2024-01-06T04:09:01;5.80;99.90
21216;DHT22;10765;50.954;5.322;2024-01-06T04:11:29;5.80;99.90
21216;DHT22;10765;50.954;5.322;2024-01-06T04:13:56;5.90;99.90
21216;DHT22;10765;50.954;5.322;2024-01-06T04:16:23;6.00;99.90
21216;DHT22;10765;50.954;5.322;2024-01-06T04:18:50;6.10;99.90
21216;DHT22;10765;50.954;5.322;2024-01-06T04:21:17;6.20;99.90
21216;DHT22;10765;50.954;5.322;2024-01-06T04:23:45;6.30;99.90
21216;DHT22;10765;50.954;5.322;2024-01-06T04:26:12;6.30;99.90
21216;DHT22;10765;50.954;5.322;2024-01-06T04:28:39;6.20;99.90
21216;DHT22;10765;50.954;5.322;2024-01-06T04:31:06;6.10;99.90
21216;DHT22;10765;50.954;5.322;2024-01-06T04:33:32;6.00;99.90
21216;DHT22;10765;50.954;5.322;2024-01-06T04:35:59;5.90;99.90
21216;DHT22;10765;50.954;5.322;2024-01-06T04:38:27;5.90;99.90
21216;DHT22;10765;50.954;5.322;2024-01-06T04:40:56;5.90;99.90
21216;DHT22;10765;50.954;5.322;2024-01-06T04:43:23;5.80;99.90
21216;DHT22;10765;50.954;5.322;2024-01-06T04:45:49;5.80;99.90
21216;DHT22;10765;50.954;5.322;2024-01-06T04:48:16;5.70;99.90
21216;DHT22;10765;50.954;5.322;2024-01-06T04:50:43;5.60;99.90
21216;DHT22;10765;50.954;5.322;2024-01-06T04:53:10;5.60;99.90
21216;DHT22;10765;50.954;5.322;2024-01-06T04:55:37;5.60;99.90
21216;DHT22;10765;50.954;5.322;2024-01-06T04:58:05;5.40;99.90
21216;DHT22;10765;50.954;5.322;2024-01-06T05:00:32;5.30;99.90
21216;DHT22;10765;50.954;5.322;2024-01-06T05:03:01;5.20;99.90
21216;DHT22;10765;50.954;5.322;2024-01-06T05:05:28;5.20;99.90
21216;DHT22;10765;50.954;5.322;2024-01-06T05:07:55;5.20;99.90
21216;DHT22;10765;50.954;5.322;2024-01-06T05:10:23;5.10;99.90
21216;DHT22;10765;50.954;5.322;2024-01-06T05:12:50;5.10;99.90
21216;DHT22;10765;50.954;5.322;2024-01-06T05:15:19;5.10;99.90
21216;DHT22;10765;50.954;5.322;2024-01-06T05:17:45;5.10;99.90
21216;DHT22;10765;50.954;5.322;2024-01-06T05:20:13;5.20;99.90
21216;DHT22;10765;50.954;5.322;2024-01-06T05:22:39;5.20;99.90
21216;DHT22;10765;50.954;5.322;2024-01-06T05:25:07;5.10;99.90
21216;DHT22;10765;50.954;5.322;2024-01-06T05:27:34;5.20;99.90
21216;DHT22;10765;50.954;5.322;2024-01-06T05:30:01;5.10;99.90
21216;DHT22;10765;50.954;5.322;2024-01-06T05:32:29;5.00;99.90
21216;DHT22;10765;50.954;5.322;2024-01-06T05:34:56;5.00;99.90
21216;DHT22;10765;50.954;5.322;2024-01-06T05:37:23;4.90;99.90
21216;DHT22;10765;50.954;5.322;2024-01-06T05:39:50;4.90;99.90
21216;DHT22;10765;50.954;5.322;2024-01-06T05:42:17;5.00;99.90
21216;DHT22;10765;50.954;5.322;2024-01-06T05:44:44;4.90;99.90
21216;DHT22;10765;50.954;5.322;2024-01-06T05:47:11;4.80;99.90
21216;DHT22;10765;50.954;5.322;2024-01-06T05:49:42;4.80;99.90
21216;DHT22;10765;50.954;5.322;2024-01-06T05:52:10;4.80;99.90
21216;DHT22;10765;50.954;5.322;2024-01-06T05:54:40;4.80;99.90
21216;DHT22;10765;50.954;5.322;2024-01-06T05:57:06;4.80;99.90
21216;DHT22;10765;50.954;5.322;2024-01-06T05:59:34;4.80;99.90
21216;DHT22;10765;50.954;5.322;2024-01-06T06:02:01;4.80;99.90
21216;DHT22;10765;50.954;5.322;2024-01-06T06:04:28;4.80;99.90
21216;DHT22;10765;50.954;5.322;2024-01-06T06:06:56;4.80;99.90
21216;DHT22;10765;50.954;5.322;2024-01-06T06:09:23;4.80;99.90
21216;DHT22;10765;50.954;5.322;2024-01-06T06:11:50;5.00;99.90
21216;DHT22;10765;50.954;5.322;2024-01-06T06:14:17;5.10;99.90
21216;DHT22;10765;50.954;5.322;2024-01-06T06:16:44;4.90;99.90
21216;DHT22;10765;50.954;5.322;2024-01-06T06:19:10;4.90;99.90
21216;DHT22;10765;50.954;5.322;2024-01-06T06:21:37;5.00;99.90
21216;DHT22;10765;50.954;5.322;2024-01-06T06:24:06;5.00;99.90
21216;DHT22;10765;50.954;5.322;2024-01-06T06:26:33;5.10;99.90
21216;DHT22;10765;50.954;5.322;2024-01-06T06:29:00;5.10;99.90
21216;DHT22;10765;50.954;5.322;2024-01-06T06:31:27;5.00;99.90
21216;DHT22;10765;50.954;5.322;2024-01-06T06:33:53;5.10;99.90
21216;DHT22;10765;50.954;5.322;2024-01-06T06:36:20;5.20;99.90
21216;DHT22;10765;50.954;5.322;2024-01-06T06:38:47;5.00;99.90
21216;DHT22;10765;50.954;5.322;2024-01-06T06:41:15;4.90;99.90
21216;DHT22;10765;50.954;5.322;2024-01-06T06:43:42;5.00;99.90
21216;DHT22;10765;50.954;5.322;2024-01-06T06:46:09;4.90;99.90
21216;DHT22;10765;50.954;5.322;2024-01-06T06:48:35;4.90;99.90
21216;DHT22;10765;50.954;5.322;2024-01-06T06:51:02;5.00;99.90
21216;DHT22;10765;50.954;5.322;2024-01-06T06:53:29;5.00;99.90
21216;DHT22;10765;50.954;5.322;2024-01-06T06:55:56;5.00;99.90
21216;DHT22;10765;50.954;5.322;2024-01-06T06:58:25;4.90;99.90
21216;DHT22;10765;50.954;5.322;2024-01-06T07:00:52;4.90;99.90
21216;DHT22;10765;50.954;5.322;2024-01-06T07:03:19;4.80;99.90
21216;DHT22;10765;50.954;5.322;2024-01-06T07:05:47;4.70;99.90
21216;DHT22;10765;50.954;5.322;2024-01-06T07:08:14;4.70;99.90
21216;DHT22;10765;50.954;5.322;2024-01-06T07:10:41;4.60;99.90
21216;DHT22;10765;50.954;5.322;2024-01-06T07:13:08;4.60;99.90
21216;DHT22;10765;50.954;5.322;2024-01-06T07:15:36;4.70;99.90
21216;DHT22;10765;50.954;5.322;2024-01-06T07:18:03;4.70;99.90
21216;DHT22;10765;50.954;5.322;2024-01-06T07:20:29;4.70;99.90
21216;DHT22;10765;50.954;5.322;2024-01-06T07:22:56;4.80;99.90
21216;DHT22;10765;50.954;5.322;2024-01-06T07:25:23;4.70;99.90
21216;DHT22;10765;50.954;5.322;2024-01-06T07:27:50;4.60;99.90
21216;DHT22;10765;50.954;5.322;2024-01-06T07:30:17;4.60;99.90
21216;DHT22;10765;50.954;5.322;2024-01-06T07:32:45;4.50;99.90
21216;DHT22;10765;50.954;5.322;2024-01-06T07:35:13;4.50;99.90
21216;DHT22;10765;50.954;5.322;2024-01-06T07:37:40;4.50;99.90
21216;DHT22;10765;50.954;5.322;2024-01-06T07:40:07;4.50;99.90
21216;DHT22;10765;50.954;5.322;2024-01-06T07:42:34;4.50;99.90
21216;DHT22;10765;50.954;5.322;2024-01-06T07:45:01;4.50;99.90
21216;DHT22;10765;50.954;5.322;2024-01-06T07:47:28;4.50;99.90
21216;DHT22;10765;50.954;5.322;2024-01-06T07:49:57;4.50;99.90
21216;DHT22;10765;50.954;5.322;2024-01-06T07:52:23;4.50;99.90
21216;DHT22;10765;50.954;5.322;2024-01-06T07:54:49;4.50;99.90
21216;DHT22;10765;50.954;5.322;2024-01-06T07:57:16;4.50;99.90
21216;DHT22;10765;50.954;5.322;2024-01-06T07:59:43;4.50;99.90
21216;DHT22;10765;50.954;5.322;2024-01-06T08:02:10;4.40;99.90
21216;DHT22;10765;50.954;5.322;2024-01-06T08:04:37;4.50;99.90
21216;DHT22;10765;50.954;5.322;2024-01-06T08:07:05;4.60;99.90
21216;DHT22;10765;50.954;5.322;2024-01-06T08:09:32;4.60;99.90
21216;DHT22;10765;50.954;5.322;2024-01-06T08:11:59;4.70;99.90
21216;DHT22;10765;50.954;5.322;2024-01-06T08:14:26;4.70;99.90
21216;DHT22;10765;50.954;5.322;2024-01-06T08:16:53;4.60;99.90
21216;DHT22;10765;50.954;5.322;2024-01-06T08:19:20;4.60;99.90
21216;DHT22;10765;50.954;5.322;2024-01-06T08:21:48;4.70;99.90
21216;DHT22;10765;50.954;5.322;2024-01-06T08:24:16;4.80;99.90
21216;DHT22;10765;50.954;5.322;2024-01-06T08:26:43;4.80;99.90
21216;DHT22;10765;50.954;5.322;2024-01-06T08:29:10;4.80;99.90
21216;DHT22;10765;50.954;5.322;2024-01-06T08:31:37;4.80;99.90
21216;DHT22;10765;50.954;5.322;2024-01-06T08:34:04;4.90;99.90
21216;DHT22;10765;50.954;5.322;2024-01-06T08:36:33;5.00;99.90
21216;DHT22;10765;50.954;5.322;2024-01-06T08:39:00;5.00;99.90
21216;DHT22;10765;50.954;5.322;2024-01-06T08:41:28;5.10;99.90
21216;DHT22;10765;50.954;5.322;2024-01-06T08:43:55;5.10;99.90
21216;DHT22;10765;50.954;5.322;2024-01-06T08:46:22;5.10;99.90
21216;DHT22;10765;50.954;5.322;2024-01-06T08:48:49;5.00;99.90
21216;DHT22;10765;50.954;5.322;2024-01-06T08:51:16;5.00;99.90
21216;DHT22;10765;50.954;5.322;2024-01-06T08:53:43;5.00;99.90
21216;DHT22;10765;50.954;5.322;2024-01-06T08:56:10;4.90;99.90
21216;DHT22;10765;50.954;5.322;2024-01-06T08:58:38;4.80;99.90
21216;DHT22;10765;50.954;5.322;2024-01-06T09:01:05;4.90;99.90
21216;DHT22;10765;50.954;5.322;2024-01-06T09:03:32;4.80;99.90
21216;DHT22;10765;50.954;5.322;2024-01-06T09:05:58;4.80;99.90
21216;DHT22;10765;50.954;5.322;2024-01-06T09:08:26;4.80;99.90
21216;DHT22;10765;50.954;5.322;2024-01-06T09:10:53;4.80;99.90
21216;DHT22;10765;50.954;5.322;2024-01-06T09:13:22;4.80;99.90
21216;DHT22;10765;50.954;5.322;2024-01-06T09:15:51;4.80;99.90
21216;DHT22;10765;50.954;5.322;2024-01-06T09:18:18;4.80;99.90
21216;DHT22;10765;50.954;5.322;2024-01-06T09:20:45;5.00;99.90
21216;DHT22;10765;50.954;5.322;2024-01-06T09:23:13;4.90;99.90
21216;DHT22;10765;50.954;5.322;2024-01-06T09:25:40;4.90;99.90
21216;DHT22;10765;50.954;5.322;2024-01-06T09:28:07;4.90;99.90
21216;DHT22;10765;50.954;5.322;2024-01-06T09:30:34;4.90;99.90
21216;DHT22;10765;50.954;5.322;2024-01-06T09:33:02;4.90;99.90
21216;DHT22;10765;50.954;5.322;2024-01-06T09:35:29;5.00;99.90
21216;DHT22;10765;50.954;5.322;2024-01-06T09:37:56;5.00;99.90
21216;DHT22;10765;50.954;5.322;2024-01-06T09:40:23;5.00;99.90
21216;DHT22;10765;50.954;5.322;2024-01-06T09:42:51;5.00;99.90
21216;DHT22;10765;50.954;5.322;2024-01-06T09:45:19;4.90;99.90
21216;DHT22;10765;50.954;5.322;2024-01-06T09:47:49;5.00;99.90
21216;DHT22;10765;50.954;5.322;2024-01-06T09:50:20;4.90;99.90
21216;DHT22;10765;50.954;5.322;2024-01-06T09:52:48;4.70;99.90
21216;DHT22;10765;50.954;5.322;2024-01-06T09:55:23;4.50;99.90
21216;DHT22;10765;50.954;5.322;2024-01-06T09:57:51;4.60;99.90
21216;DHT22;10765;50.954;5.322;2024-01-06T10:00:19;4.70;99.90
21216;DHT22;10765;50.954;5.322;2024-01-06T10:02:46;4.60;99.90
21216;DHT22;10765;50.954;5.322;2024-01-06T10:05:15;4.70;99.90
21216;DHT22;10765;50.954;5.322;2024-01-06T10:07:43;4.70;99.90
21216;DHT22;10765;50.954;5.322;2024-01-06T10:10:11;4.70;99.90
21216;DHT22;10765;50.954;5.322;2024-01-06T10:12:39;4.60;99.90
21216;DHT22;10765;50.954;5.322;2024-01-06T10:15:07;4.50;99.90
21216;DHT22;10765;50.954;5.322;2024-01-06T10:17:36;4.40;99.90
21216;DHT22;10765;50.954;5.322;2024-01-06T10:20:07;4.50;99.90
21216;DHT22;10765;50.954;5.322;2024-01-06T10:22:35;4.60;99.90
21216;DHT22;10765;50.954;5.322;2024-01-06T10:25:05;4.60;99.90
21216;DHT22;10765;50.954;5.322;2024-01-06T10:27:34;4.70;99.90
21216;DHT22;10765;50.954;5.322;2024-01-06T10:30:01;4.80;99.90
21216;DHT22;10765;50.954;5.322;2024-01-06T10:32:31;4.80;99.90
21216;DHT22;10765;50.954;5.322;2024-01-06T10:34:58;4.80;99.90
21216;DHT22;10765;50.954;5.322;2024-01-06T10:37:26;4.90;99.90
21216;DHT22;10765;50.954;5.322;2024-01-06T10:40:07;4.90;99.90
21216;DHT22;10765;50.954;5.322;2024-01-06T10:42:35;5.00;99.90
21216;DHT22;10765;50.954;5.322;2024-01-06T10:45:03;5.10;99.90
21216;DHT22;10765;50.954;5.322;2024-01-06T10:47:30;4.90;99.90
21216;DHT22;10765;50.954;5.322;2024-01-06T10:49:59;5.10;99.90
21216;DHT22;10765;50.954;5.322;2024-01-06T10:52:26;5.30;99.90
21216;DHT22;10765;50.954;5.322;2024-01-06T10:54:55;5.40;99.90
21216;DHT22;10765;50.954;5.322;2024-01-06T10:57:23;5.70;99.90
21216;DHT22;10765;50.954;5.322;2024-01-06T10:59:51;5.90;99.90
21216;DHT22;10765;50.954;5.322;2024-01-06T11:02:19;6.10;99.90
21216;DHT22;10765;50.954;5.322;2024-01-06T11:04:47;6.20;99.90
21216;DHT22;10765;50.954;5.322;2024-01-06T11:07:18;6.20;99.90
21216;DHT22;10765;50.954;5.322;2024-01-06T11:09:49;6.10;99.90
21216;DHT22;10765;50.954;5.322;2024-01-06T11:12:18;5.90;99.90
21216;DHT22;10765;50.954;5.322;2024-01-06T11:14:46;5.80;99.90
21216;DHT22;10765;50.954;5.322;2024-01-06T11:17:13;5.90;99.90
21216;DHT22;10765;50.954;5.322;2024-01-06T11:20:05;5.80;99.90
21216;DHT22;10765;50.954;5.322;2024-01-06T11:22:32;5.70;99.90
21216;DHT22;10765;50.954;5.322;2024-01-06T11:25:04;5.70;99.90
21216;DHT22;10765;50.954;5.322;2024-01-06T11:27:33;5.70;99.90
21216;DHT22;10765;50.954;5.322;2024-01-06T11:30:03;5.70;99.90
21216;DHT22;10765;50.954;5.322;2024-01-06T11:32:32;5.60;99.90
21216;DHT22;10765;50.954;5.322;2024-01-06T11:35:06;5.40;99.90
21216;DHT22;10765;50.954;5.322;2024-01-06T11:37:51;5.50;99.90
21216;DHT22;10765;50.954;5.322;2024-01-06T11:40:24;5.50;99.90
21216;DHT22;10765;50.954;5.322;2024-01-06T11:42:57;5.50;99.90
21216;DHT22;10765;50.954;5.322;2024-01-06T11:45:27;5.50;99.90
21216;DHT22;10765;50.954;5.322;2024-01-06T11:47:56;5.50;99.90
21216;DHT22;10765;50.954;5.322;2024-01-06T11:50:24;5.70;99.90
21216;DHT22;10765;50.954;5.322;2024-01-06T11:52:51;5.90;99.90
21216;DHT22;10765;50.954;5.322;2024-01-06T11:55:19;6.00;99.90
21216;DHT22;10765;50.954;5.322;2024-01-06T11:57:46;6.10;99.90
21216;DHT22;10765;50.954;5.322;2024-01-06T12:00:15;6.10;99.90
21216;DHT22;10765;50.954;5.322;2024-01-06T12:02:44;6.00;99.90
21216;DHT22;10765;50.954;5.322;2024-01-06T12:05:15;5.80;99.90
21216;DHT22;10765;50.954;5.322;2024-01-06T12:07:43;5.60;99.90
21216;DHT22;10765;50.954;5.322;2024-01-06T12:10:20;5.50;99.90
21216;DHT22;10765;50.954;5.322;2024-01-06T12:12:55;5.40;99.90
21216;DHT22;10765;50.954;5.322;2024-01-06T12:15:22;5.20;99.90
21216;DHT22;10765;50.954;5.322;2024-01-06T12:17:50;5.10;99.90
21216;DHT22;10765;50.954;5.322;2024-01-06T12:20:17;5.10;99.90
21216;DHT22;10765;50.954;5.322;2024-01-06T12:22:44;5.10;99.90
21216;DHT22;10765;50.954;5.322;2024-01-06T12:25:11;5.00;99.90
21216;DHT22;10765;50.954;5.322;2024-01-06T12:27:42;4.90;99.90
21216;DHT22;10765;50.954;5.322;2024-01-06T12:30:13;5.00;99.90
21216;DHT22;10765;50.954;5.322;2024-01-06T12:32:42;5.10;99.90
21216;DHT22;10765;50.954;5.322;2024-01-06T12:35:10;5.20;99.90
21216;DHT22;10765;50.954;5.322;2024-01-06T12:37:38;5.30;99.90
21216;DHT22;10765;50.954;5.322;2024-01-06T12:40:07;5.30;99.90
21216;DHT22;10765;50.954;5.322;2024-01-06T12:42:35;5.20;99.90
21216;DHT22;10765;50.954;5.322;2024-01-06T12:45:02;5.40;99.90
21216;DHT22;10765;50.954;5.322;2024-01-06T12:47:29;5.30;99.90
21216;DHT22;10765;50.954;5.322;2024-01-06T12:49:56;5.20;99.90
21216;DHT22;10765;50.954;5.322;2024-01-06T12:52:24;5.30;99.90
21216;DHT22;10765;50.954;5.322;2024-01-06T12:54:51;5.30;99.90
21216;DHT22;10765;50.954;5.322;2024-01-06T12:57:19;5.30;99.90
21216;DHT22;10765;50.954;5.322;2024-01-06T12:59:46;5.20;99.90
21216;DHT22;10765;50.954;5.322;2024-01-06T13:02:12;5.30;99.90
21216;DHT22;10765;50.954;5.322;2024-01-06T13:04:39;5.20;99.90
21216;DHT22;10765;50.954;5.322;2024-01-06T13:07:06;5.20;99.90
21216;DHT22;10765;50.954;5.322;2024-01-06T13:09:35;5.30;99.90
21216;DHT22;10765;50.954;5.322;2024-01-06T13:12:02;5.40;99.90
21216;DHT22;10765;50.954;5.322;2024-01-06T13:14:29;5.30;99.90
21216;DHT22;10765;50.954;5.322;2024-01-06T13:16:57;5.20;99.90
21216;DHT22;10765;50.954;5.322;2024-01-06T13:19:24;5.10;99.90
21216;DHT22;10765;50.954;5.322;2024-01-06T13:21:52;4.90;99.90
21216;DHT22;10765;50.954;5.322;2024-01-06T13:24:19;5.00;99.90
21216;DHT22;10765;50.954;5.322;2024-01-06T13:26:47;5.00;99.90
21216;DHT22;10765;50.954;5.322;2024-01-06T13:29:14;5.00;99.90
21216;DHT22;10765;50.954;5.322;2024-01-06T13:31:43;5.00;99.90
21216;DHT22;10765;50.954;5.322;2024-01-06T13:34:10;5.00;99.90
21216;DHT22;10765;50.954;5.322;2024-01-06T13:36:37;4.90;99.90
21216;DHT22;10765;50.954;5.322;2024-01-06T13:39:04;4.80;99.90
21216;DHT22;10765;50.954;5.322;2024-01-06T13:41:32;4.80;99.90
21216;DHT22;10765;50.954;5.322;2024-01-06T13:44:00;4.70;99.90
21216;DHT22;10765;50.954;5.322;2024-01-06T13:46:27;4.80;99.90
21216;DHT22;10765;50.954;5.322;2024-01-06T13:48:54;4.80;99.90
21216;DHT22;10765;50.954;5.322;2024-01-06T13:51:21;4.70;99.90
21216;DHT22;10765;50.954;5.322;2024-01-06T13:53:48;4.70;99.90
21216;DHT22;10765;50.954;5.322;2024-01-06T13:56:15;4.80;99.90
21216;DHT22;10765;50.954;5.322;2024-01-06T13:58:43;4.90;99.90
21216;DHT22;10765;50.954;5.322;2024-01-06T14:01:11;4.90;87.20
21216;DHT22;10765;50.954;5.322;2024-01-06T14:03:38;4.90;1.00
21216;DHT22;10765;50.954;5.322;2024-01-06T14:06:05;5.00;1.00
21216;DHT22;10765;50.954;5.322;2024-01-06T14:08:33;4.90;99.90
21216;DHT22;10765;50.954;5.322;2024-01-06T14:10:59;4.80;99.90
21216;DHT22;10765;50.954;5.322;2024-01-06T14:13:26;4.80;1.00
21216;DHT22;10765;50.954;5.322;2024-01-06T14:15:53;4.70;1.00
21216;DHT22;10765;50.954;5.322;2024-01-06T14:18:22;4.70;99.90
21216;DHT22;10765;50.954;5.322;2024-01-06T14:20:49;4.70;99.90
21216;DHT22;10765;50.954;5.322;2024-01-06T14:23:17;4.70;99.90
21216;DHT22;10765;50.954;5.322;2024-01-06T14:25:45;4.60;99.90
21216;DHT22;10765;50.954;5.322;2024-01-06T14:28:12;4.50;1.00
21216;DHT22;10765;50.954;5.322;2024-01-06T14:30:39;4.50;99.90
21216;DHT22;10765;50.954;5.322;2024-01-06T14:33:06;4.50;99.90
21216;DHT22;10765;50.954;5.322;2024-01-06T14:35:34;4.50;1.00
21216;DHT22;10765;50.954;5.322;2024-01-06T14:38:01;4.60;99.90
21216;DHT22;10765;50.954;5.322;2024-01-06T14:40:28;4.60;1.00
21216;DHT22;10765;50.954;5.322;2024-01-06T14:42:56;4.50;1.00
21216;DHT22;10765;50.954;5.322;2024-01-06T14:45:24;4.50;99.90
21216;DHT22;10765;50.954;5.322;2024-01-06T14:47:50;4.50;99.90
21216;DHT22;10765;50.954;5.322;2024-01-06T14:50:17;4.40;99.90
21216;DHT22;10765;50.954;5.322;2024-01-06T14:52:46;4.50;1.00
21216;DHT22;10765;50.954;5.322;2024-01-06T14:55:13;4.50;1.00
21216;DHT22;10765;50.954;5.322;2024-01-06T14:57:40;4.60;99.90
21216;DHT22;10765;50.954;5.322;2024-01-06T15:00:07;4.50;99.90
21216;DHT22;10765;50.954;5.322;2024-01-06T15:02:36;4.50;99.90
21216;DHT22;10765;50.954;5.322;2024-01-06T15:05:03;4.40;91.30
21216;DHT22;10765;50.954;5.322;2024-01-06T15:07:31;4.40;99.90
21216;DHT22;10765;50.954;5.322;2024-01-06T15:10:00;4.30;99.90
21216;DHT22;10765;50.954;5.322;2024-01-06T15:12:27;4.40;17.90
21216;DHT22;10765;50.954;5.322;2024-01-06T15:14:54;4.30;99.90
21216;DHT22;10765;50.954;5.322;2024-01-06T15:17:21;4.40;99.90
21216;DHT22;10765;50.954;5.322;2024-01-06T15:19:48;4.50;22.30
21216;DHT22;10765;50.954;5.322;2024-01-06T15:22:27;4.50;17.60
21216;DHT22;10765;50.954;5.322;2024-01-06T15:24:54;4.50;99.90
21216;DHT22;10765;50.954;5.322;2024-01-06T15:27:22;4.40;99.90
21216;DHT22;10765;50.954;5.322;2024-01-06T15:29:49;4.30;99.90
21216;DHT22;10765;50.954;5.322;2024-01-06T15:32:16;4.20;1.00
21216;DHT22;10765;50.954;5.322;2024-01-06T15:34:43;4.20;1.00
21216;DHT22;10765;50.954;5.322;2024-01-06T15:37:10;4.20;1.00
21216;DHT22;10765;50.954;5.322;2024-01-06T15:39:37;4.10;1.00
21216;DHT22;10765;50.954;5.322;2024-01-06T15:42:04;4.10;70.60
21216;DHT22;10765;50.954;5.322;2024-01-06T15:44:32;4.10;1.00
21216;DHT22;10765;50.954;5.322;2024-01-06T15:46:59;4.10;1.00
21216;DHT22;10765;50.954;5.322;2024-01-06T15:49:27;4.10;1.00